This is the latest recevied weather packets stored in our database for station/object SQ9SMC-13. If no packets are shown the sender has not sent any weather packets the latest 1 day(s).
| Time | Temp. | Humidity | Pressure | Rain* | Wind** | Luminosity | Snow |
|---|---|---|---|---|---|---|---|
| 1778038503 | 13.33° C | 69% | 1007.8 hPa | 0 mm | - | 11 W/m² | - |
| 1778037903 | 12.78° C | 71% | 1008 hPa | 0 mm | - | 7 W/m² | - |
| 1778037303 | 12.22° C | 73% | 1007.9 hPa | 0 mm | - | 3 W/m² | - |
| 1778036703 | 8.89° C | 85% | 1007.8 hPa | 0 mm | - | 1 W/m² | - |
| 1778035505 | 7.22° C | 88% | 1007.9 hPa | 0 mm | - | 0 W/m² | - |
| 1778034905 | 7.22° C | 87% | 1007.8 hPa | 0 mm | - | 0 W/m² | - |
| 1778034303 | 7.78° C | 86% | 1007.8 hPa | 0 mm | - | 0 W/m² | - |
| 1778033105 | 8.33° C | 84% | 1007.9 hPa | 0 mm | - | 0 W/m² | - |
| 1778032805 | 8.33° C | 83% | 1007.9 hPa | 0 mm | - | 0 W/m² | - |
| 1778031904 | 8.33° C | 84% | 1007.9 hPa | 0 mm | - | 0 W/m² | - |
| 1778030708 | 9.44° C | 80% | 1008 hPa | 0 mm | - | 0 W/m² | - |
| 1778029805 | 10° C | 77% | 1007.9 hPa | 0 mm | - | 0 W/m² | - |
| 1778028904 | 10.56° C | 73% | 1007.9 hPa | 0 mm | - | 0 W/m² | - |
| 1778028604 | 11.11° C | 72% | 1007.9 hPa | 0 mm | - | 0 W/m² | - |
| 1778028004 | 11.67° C | 69% | 1007.9 hPa | 0 mm | - | 0 W/m² | - |
| 1778026504 | 13.33° C | 64% | 1008.1 hPa | 0 mm | - | 0 W/m² | - |
| 1778026204 | 14.44° C | 59% | 1008.1 hPa | 0 mm | - | 0 W/m² | - |
| 1778023503 | 17.22° C | 51% | 1008.2 hPa | 0 mm | - | 0 W/m² | - |
| 1778022904 | 16.67° C | 51% | 1008.2 hPa | 0 mm | - | 0 W/m² | - |
| 1778021703 | 15.56° C | 57% | 1008.4 hPa | 0 mm | - | 0 W/m² | - |
| 1778020504 | 17.22° C | 50% | 1008.4 hPa | 0 mm | - | 0 W/m² | - |
| 1778020203 | 17.78° C | 49% | 1008.5 hPa | 0 mm | - | 0 W/m² | - |
| 1778019003 | 18.33° C | 47% | 1008.7 hPa | 0 mm | - | 0 W/m² | - |
* Rain latest hour (hover to see other rain measurements)
** Current wind speed in m/s (hover to see current wind gust speed)